Saltar para o conteúdo principal

Albufeira

ID 1210874 · 37.0935, -8.2620 mapa

Última leitura · 2026-05-09 19:00 (Europe/Lisbon)

Temperatura
15.9 °C
Humidade
78 %
Pressão
Precipitação
0.0 mm
Radiação
Velocidade do vento
12.6 km/h
Direcção do vento
S · Sul

Histórico de 24 horas

Hora (Europe/Lisbon) Temperatura Humidade Pressão Chuva Vento Direcção
2026-05-09 19:00 15.9 °C 78 % 0.0 mm 12.6 km/h S
2026-05-09 18:00 15.6 °C 83 % 0.3 mm 15.8 km/h SW
2026-05-09 17:00 17.9 °C 71 % 0.0 mm 21.2 km/h S
2026-05-09 16:00 18.4 °C 71 % 0.0 mm 24.1 km/h SW
2026-05-09 15:00 18.0 °C 76 % 0.0 mm 22.0 km/h SW
2026-05-09 14:00 17.2 °C 76 % 0.0 mm 24.5 km/h S
2026-05-09 13:00 17.3 °C 72 % 0.0 mm 26.3 km/h S
2026-05-09 12:00 17.1 °C 72 % 0.0 mm 21.2 km/h S
2026-05-09 11:00 16.2 °C 79 % 0.0 mm 20.2 km/h SW
2026-05-09 10:00 15.4 °C 86 % 0.0 mm 18.0 km/h SW
2026-05-09 09:00 15.5 °C 87 % 0.0 mm 20.9 km/h SW
2026-05-09 08:00 14.4 °C 94 % 0.8 mm 31.7 km/h S
2026-05-09 07:00 14.6 °C 90 % 2.3 mm 20.9 km/h SE
2026-05-09 06:00 14.6 °C 87 % 0.0 mm 20.5 km/h SE
2026-05-09 05:00 14.9 °C 92 % 0.7 mm 24.8 km/h SE
2026-05-09 04:00 14.9 °C 92 % 0.0 mm 20.9 km/h S
2026-05-09 03:00 13.9 °C 96 % 0.0 mm 12.6 km/h S
2026-05-09 02:00 12.7 °C 97 % 7.1 mm 13.3 km/h SE
2026-05-09 01:00 13.0 °C 98 % 1.3 mm 12.6 km/h E
2026-05-09 00:00 12.9 °C 96 % 0.0 mm 10.4 km/h E
2026-05-08 23:00 12.8 °C 95 % 1.2 mm 10.8 km/h E
2026-05-08 22:00 13.2 °C 93 % 5.0 mm 4.3 km/h S
2026-05-08 21:00 14.6 °C 91 % 0.0 mm 19.4 km/h SE
2026-05-08 20:00 14.2 °C 95 % 0.1 mm 11.5 km/h SE